sensor_id;sensor_type;location;lat;lon;timestamp;P1;P2;P0
78678;PMS5003;67994;59.334;13.528;2023-07-02T00:00:00;3.9;3.9;
78678;PMS5003;67994;59.334;13.528;2023-07-02T00:01:00;3.9;3.9;
78678;PMS5003;67994;59.334;13.528;2023-07-02T00:02:00;3.9;3.9;
78678;PMS5003;67994;59.334;13.528;2023-07-02T00:03:00;3.9;3.9;
78678;PMS5003;67994;59.334;13.528;2023-07-02T00:04:00;5.3;5.3;
78678;PMS5003;67994;59.334;13.528;2023-07-02T00:05:00;5.3;5.3;
78678;PMS5003;67994;59.334;13.528;2023-07-02T00:06:00;5.3;5.3;
78678;PMS5003;67994;59.334;13.528;2023-07-02T00:07:00;5.3;5.3;
78678;PMS5003;67994;59.334;13.528;2023-07-02T00:08:00;5.3;5.3;
78678;PMS5003;67994;59.334;13.528;2023-07-02T00:09:00;6.3;6.3;
78678;PMS5003;67994;59.334;13.528;2023-07-02T00:10:00;6.3;6.3;
78678;PMS5003;67994;59.334;13.528;2023-07-02T00:11:00;6.3;6.3;
78678;PMS5003;67994;59.334;13.528;2023-07-02T00:12:00;6.3;6.3;
78678;PMS5003;67994;59.334;13.528;2023-07-02T00:13:00;6.3;6.3;
78678;PMS5003;67994;59.334;13.528;2023-07-02T00:14:00;7.4;5.8;
78678;PMS5003;67994;59.334;13.528;2023-07-02T00:15:00;7.4;5.8;
78678;PMS5003;67994;59.334;13.528;2023-07-02T00:16:00;7.4;5.8;
78678;PMS5003;67994;59.334;13.528;2023-07-02T00:17:00;7.4;5.8;
78678;PMS5003;67994;59.334;13.528;2023-07-02T00:18:00;7.4;5.8;
78678;PMS5003;67994;59.334;13.528;2023-07-02T00:19:00;6.0;6.0;
78678;PMS5003;67994;59.334;13.528;2023-07-02T00:20:00;6.0;6.0;
78678;PMS5003;67994;59.334;13.528;2023-07-02T00:21:00;6.0;6.0;
78678;PMS5003;67994;59.334;13.528;2023-07-02T00:22:00;6.0;6.0;
78678;PMS5003;67994;59.334;13.528;2023-07-02T00:23:00;6.0;6.0;
78678;PMS5003;67994;59.334;13.528;2023-07-02T00:24:00;5.4;4.4;
78678;PMS5003;67994;59.334;13.528;2023-07-02T00:25:00;5.4;4.4;
78678;PMS5003;67994;59.334;13.528;2023-07-02T00:26:00;5.4;4.4;
78678;PMS5003;67994;59.334;13.528;2023-07-02T00:27:00;5.4;4.4;
78678;PMS5003;67994;59.334;13.528;2023-07-02T00:28:00;5.4;4.4;
78678;PMS5003;67994;59.334;13.528;2023-07-02T00:29:00;6.0;6.0;
78678;PMS5003;67994;59.334;13.528;2023-07-02T00:30:00;6.0;6.0;
78678;PMS5003;67994;59.334;13.528;2023-07-02T00:31:00;6.0;6.0;
78678;PMS5003;67994;59.334;13.528;2023-07-02T00:32:00;6.0;6.0;
78678;PMS5003;67994;59.334;13.528;2023-07-02T00:33:00;6.0;6.0;
78678;PMS5003;67994;59.334;13.528;2023-07-02T00:34:00;7.4;6.0;
78678;PMS5003;67994;59.334;13.528;2023-07-02T00:35:00;7.4;6.0;
78678;PMS5003;67994;59.334;13.528;2023-07-02T00:36:00;7.4;6.0;
78678;PMS5003;67994;59.334;13.528;2023-07-02T00:37:00;7.4;6.0;
78678;PMS5003;67994;59.334;13.528;2023-07-02T00:38:00;7.4;6.0;
78678;PMS5003;67994;59.334;13.528;2023-07-02T00:39:00;4.1;4.1;
78678;PMS5003;67994;59.334;13.528;2023-07-02T00:40:00;4.1;4.1;
78678;PMS5003;67994;59.334;13.528;2023-07-02T00:41:00;4.1;4.1;
78678;PMS5003;67994;59.334;13.528;2023-07-02T00:42:00;4.1;4.1;
78678;PMS5003;67994;59.334;13.528;2023-07-02T00:43:00;4.1;4.1;
78678;PMS5003;67994;59.334;13.528;2023-07-02T00:44:00;6.0;5.1;
78678;PMS5003;67994;59.334;13.528;2023-07-02T00:45:00;6.0;5.1;
78678;PMS5003;67994;59.334;13.528;2023-07-02T00:46:00;6.0;5.1;
78678;PMS5003;67994;59.334;13.528;2023-07-02T00:47:00;6.0;5.1;
78678;PMS5003;67994;59.334;13.528;2023-07-02T00:48:00;6.0;5.1;
78678;PMS5003;67994;59.334;13.528;2023-07-02T00:49:00;10.7;8.1;
78678;PMS5003;67994;59.334;13.528;2023-07-02T00:50:00;10.7;8.1;
78678;PMS5003;67994;59.334;13.528;2023-07-02T00:51:00;10.7;8.1;
78678;PMS5003;67994;59.334;13.528;2023-07-02T00:52:00;10.7;8.1;
78678;PMS5003;67994;59.334;13.528;2023-07-02T00:53:00;10.7;8.1;
78678;PMS5003;67994;59.334;13.528;2023-07-02T00:54:00;5.4;5.4;
78678;PMS5003;67994;59.334;13.528;2023-07-02T00:55:00;5.4;5.4;
78678;PMS5003;67994;59.334;13.528;2023-07-02T00:56:00;5.4;5.4;
78678;PMS5003;67994;59.334;13.528;2023-07-02T00:57:00;5.4;5.4;
78678;PMS5003;67994;59.334;13.528;2023-07-02T00:58:00;5.4;5.4;
78678;PMS5003;67994;59.334;13.528;2023-07-02T00:59:00;5.4;5.4;
78678;PMS5003;67994;59.334;13.528;2023-07-02T01:00:00;5.4;5.4;
78678;PMS5003;67994;59.334;13.528;2023-07-02T01:01:00;5.4;5.4;
78678;PMS5003;67994;59.334;13.528;2023-07-02T01:02:00;5.4;5.4;
78678;PMS5003;67994;59.334;13.528;2023-07-02T01:03:00;5.4;5.4;
78678;PMS5003;67994;59.334;13.528;2023-07-02T01:04:00;7.1;6.1;
78678;PMS5003;67994;59.334;13.528;2023-07-02T01:05:00;7.1;6.1;
78678;PMS5003;67994;59.334;13.528;2023-07-02T01:06:00;7.1;6.1;
78678;PMS5003;67994;59.334;13.528;2023-07-02T01:07:00;7.1;6.1;
78678;PMS5003;67994;59.334;13.528;2023-07-02T01:08:00;7.1;6.1;
78678;PMS5003;67994;59.334;13.528;2023-07-02T01:09:00;5.1;4.1;
78678;PMS5003;67994;59.334;13.528;2023-07-02T01:10:00;5.1;4.1;
78678;PMS5003;67994;59.334;13.528;2023-07-02T01:11:00;5.1;4.1;
78678;PMS5003;67994;59.334;13.528;2023-07-02T01:12:01;5.1;4.1;
78678;PMS5003;67994;59.334;13.528;2023-07-02T01:13:01;5.1;4.1;
78678;PMS5003;67994;59.334;13.528;2023-07-02T01:14:01;4.1;3.7;
78678;PMS5003;67994;59.334;13.528;2023-07-02T01:15:00;4.1;3.7;
78678;PMS5003;67994;59.334;13.528;2023-07-02T01:16:00;4.1;3.7;
78678;PMS5003;67994;59.334;13.528;2023-07-02T01:17:02;4.1;3.7;
78678;PMS5003;67994;59.334;13.528;2023-07-02T01:18:00;4.1;3.7;
78678;PMS5003;67994;59.334;13.528;2023-07-02T01:19:02;5.4;5.4;
78678;PMS5003;67994;59.334;13.528;2023-07-02T01:20:00;5.4;5.4;
78678;PMS5003;67994;59.334;13.528;2023-07-02T01:21:00;5.4;5.4;
78678;PMS5003;67994;59.334;13.528;2023-07-02T01:22:00;5.4;5.4;
78678;PMS5003;67994;59.334;13.528;2023-07-02T01:23:00;5.4;5.4;
78678;PMS5003;67994;59.334;13.528;2023-07-02T01:24:00;6.4;6.4;
78678;PMS5003;67994;59.334;13.528;2023-07-02T01:25:00;6.4;6.4;
78678;PMS5003;67994;59.334;13.528;2023-07-02T01:26:00;6.4;6.4;
78678;PMS5003;67994;59.334;13.528;2023-07-02T01:27:00;6.4;6.4;
78678;PMS5003;67994;59.334;13.528;2023-07-02T01:28:00;6.4;6.4;
78678;PMS5003;67994;59.334;13.528;2023-07-02T01:29:00;6.1;6.1;
78678;PMS5003;67994;59.334;13.528;2023-07-02T01:30:00;6.1;6.1;
78678;PMS5003;67994;59.334;13.528;2023-07-02T01:31:00;6.1;6.1;
78678;PMS5003;67994;59.334;13.528;2023-07-02T01:32:00;6.1;6.1;
78678;PMS5003;67994;59.334;13.528;2023-07-02T01:33:00;6.1;6.1;
78678;PMS5003;67994;59.334;13.528;2023-07-02T01:34:00;6.0;6.0;
78678;PMS5003;67994;59.334;13.528;2023-07-02T01:35:00;6.0;6.0;
78678;PMS5003;67994;59.334;13.528;2023-07-02T01:36:00;6.0;6.0;
78678;PMS5003;67994;59.334;13.528;2023-07-02T01:37:00;6.0;6.0;
78678;PMS5003;67994;59.334;13.528;2023-07-02T01:38:00;6.0;6.0;
78678;PMS5003;67994;59.334;13.528;2023-07-02T01:39:00;7.6;6.0;
78678;PMS5003;67994;59.334;13.528;2023-07-02T01:40:00;7.6;6.0;
78678;PMS5003;67994;59.334;13.528;2023-07-02T01:41:00;7.6;6.0;
78678;PMS5003;67994;59.334;13.528;2023-07-02T01:42:08;7.6;6.0;
78678;PMS5003;67994;59.334;13.528;2023-07-02T01:43:00;7.6;6.0;
78678;PMS5003;67994;59.334;13.528;2023-07-02T01:44:00;6.0;6.0;
78678;PMS5003;67994;59.334;13.528;2023-07-02T01:45:00;6.0;6.0;
78678;PMS5003;67994;59.334;13.528;2023-07-02T01:46:00;6.0;6.0;
78678;PMS5003;67994;59.334;13.528;2023-07-02T01:47:00;6.0;6.0;
78678;PMS5003;67994;59.334;13.528;2023-07-02T01:48:00;6.0;6.0;
78678;PMS5003;67994;59.334;13.528;2023-07-02T01:49:00;5.1;5.0;
78678;PMS5003;67994;59.334;13.528;2023-07-02T01:50:01;5.1;5.0;
78678;PMS5003;67994;59.334;13.528;2023-07-02T01:51:00;5.1;5.0;
78678;PMS5003;67994;59.334;13.528;2023-07-02T01:52:00;5.1;5.0;
78678;PMS5003;67994;59.334;13.528;2023-07-02T01:53:00;5.1;5.0;
78678;PMS5003;67994;59.334;13.528;2023-07-02T01:54:00;7.0;5.1;
78678;PMS5003;67994;59.334;13.528;2023-07-02T01:55:00;7.0;5.1;
78678;PMS5003;67994;59.334;13.528;2023-07-02T01:56:00;7.0;5.1;
78678;PMS5003;67994;59.334;13.528;2023-07-02T01:57:00;7.0;5.1;
78678;PMS5003;67994;59.334;13.528;2023-07-02T01:58:00;7.0;5.1;
78678;PMS5003;67994;59.334;13.528;2023-07-02T01:59:00;3.4;3.4;
78678;PMS5003;67994;59.334;13.528;2023-07-02T02:00:00;3.4;3.4;
78678;PMS5003;67994;59.334;13.528;2023-07-02T02:01:00;3.4;3.4;
78678;PMS5003;67994;59.334;13.528;2023-07-02T02:02:00;3.4;3.4;
78678;PMS5003;67994;59.334;13.528;2023-07-02T02:03:00;3.4;3.4;
78678;PMS5003;67994;59.334;13.528;2023-07-02T02:04:00;4.9;4.9;
78678;PMS5003;67994;59.334;13.528;2023-07-02T02:05:00;4.9;4.9;
78678;PMS5003;67994;59.334;13.528;2023-07-02T02:06:00;4.9;4.9;
78678;PMS5003;67994;59.334;13.528;2023-07-02T02:07:00;4.9;4.9;
78678;PMS5003;67994;59.334;13.528;2023-07-02T02:08:00;4.9;4.9;
78678;PMS5003;67994;59.334;13.528;2023-07-02T02:09:00;4.5;3.9;
78678;PMS5003;67994;59.334;13.528;2023-07-02T02:10:00;4.5;3.9;
78678;PMS5003;67994;59.334;13.528;2023-07-02T02:11:00;4.5;3.9;
78678;PMS5003;67994;59.334;13.528;2023-07-02T02:12:00;4.5;3.9;
78678;PMS5003;67994;59.334;13.528;2023-07-02T02:13:00;4.5;3.9;
78678;PMS5003;67994;59.334;13.528;2023-07-02T02:14:00;4.6;4.6;
78678;PMS5003;67994;59.334;13.528;2023-07-02T02:15:00;4.6;4.6;
78678;PMS5003;67994;59.334;13.528;2023-07-02T02:16:00;4.6;4.6;
78678;PMS5003;67994;59.334;13.528;2023-07-02T02:17:00;4.6;4.6;
78678;PMS5003;67994;59.334;13.528;2023-07-02T02:18:00;4.6;4.6;
78678;PMS5003;67994;59.334;13.528;2023-07-02T02:19:00;3.3;3.3;
78678;PMS5003;67994;59.334;13.528;2023-07-02T02:20:00;3.3;3.3;
78678;PMS5003;67994;59.334;13.528;2023-07-02T02:21:00;3.3;3.3;
78678;PMS5003;67994;59.334;13.528;2023-07-02T02:22:00;3.3;3.3;
78678;PMS5003;67994;59.334;13.528;2023-07-02T02:23:00;3.3;3.3;
78678;PMS5003;67994;59.334;13.528;2023-07-02T02:24:00;3.1;3.1;
78678;PMS5003;67994;59.334;13.528;2023-07-02T02:25:00;3.1;3.1;
78678;PMS5003;67994;59.334;13.528;2023-07-02T02:26:00;3.1;3.1;
78678;PMS5003;67994;59.334;13.528;2023-07-02T02:27:00;3.1;3.1;
78678;PMS5003;67994;59.334;13.528;2023-07-02T02:28:00;3.1;3.1;
78678;PMS5003;67994;59.334;13.528;2023-07-02T02:29:00;5.0;4.0;
78678;PMS5003;67994;59.334;13.528;2023-07-02T02:30:00;5.0;4.0;
78678;PMS5003;67994;59.334;13.528;2023-07-02T02:31:00;5.0;4.0;
78678;PMS5003;67994;59.334;13.528;2023-07-02T02:32:00;5.0;4.0;
78678;PMS5003;67994;59.334;13.528;2023-07-02T02:33:00;5.0;4.0;
78678;PMS5003;67994;59.334;13.528;2023-07-02T02:34:00;5.4;4.7;
78678;PMS5003;67994;59.334;13.528;2023-07-02T02:35:00;5.4;4.7;
78678;PMS5003;67994;59.334;13.528;2023-07-02T02:36:00;5.4;4.7;
78678;PMS5003;67994;59.334;13.528;2023-07-02T02:37:00;5.4;4.7;
78678;PMS5003;67994;59.334;13.528;2023-07-02T02:38:00;5.4;4.7;
78678;PMS5003;67994;59.334;13.528;2023-07-02T02:39:00;4.3;4.3;
78678;PMS5003;67994;59.334;13.528;2023-07-02T02:40:00;4.3;4.3;
78678;PMS5003;67994;59.334;13.528;2023-07-02T02:41:00;4.3;4.3;
78678;PMS5003;67994;59.334;13.528;2023-07-02T02:42:00;4.3;4.3;
78678;PMS5003;67994;59.334;13.528;2023-07-02T02:43:00;4.3;4.3;
78678;PMS5003;67994;59.334;13.528;2023-07-02T02:44:00;5.0;5.0;
78678;PMS5003;67994;59.334;13.528;2023-07-02T02:45:00;5.0;5.0;
78678;PMS5003;67994;59.334;13.528;2023-07-02T02:46:00;5.0;5.0;
78678;PMS5003;67994;59.334;13.528;2023-07-02T02:47:00;5.0;5.0;
78678;PMS5003;67994;59.334;13.528;2023-07-02T02:48:00;5.0;5.0;
78678;PMS5003;67994;59.334;13.528;2023-07-02T02:49:00;3.0;3.0;
78678;PMS5003;67994;59.334;13.528;2023-07-02T02:50:00;3.0;3.0;
78678;PMS5003;67994;59.334;13.528;2023-07-02T02:51:00;3.0;3.0;
78678;PMS5003;67994;59.334;13.528;2023-07-02T02:52:00;3.0;3.0;
78678;PMS5003;67994;59.334;13.528;2023-07-02T02:53:00;3.0;3.0;
78678;PMS5003;67994;59.334;13.528;2023-07-02T02:54:00;3.0;3.0;
78678;PMS5003;67994;59.334;13.528;2023-07-02T02:55:00;3.0;3.0;
78678;PMS5003;67994;59.334;13.528;2023-07-02T02:56:00;3.0;3.0;
78678;PMS5003;67994;59.334;13.528;2023-07-02T02:57:00;3.0;3.0;
78678;PMS5003;67994;59.334;13.528;2023-07-02T02:58:00;3.0;3.0;
78678;PMS5003;67994;59.334;13.528;2023-07-02T02:59:00;4.0;4.0;
78678;PMS5003;67994;59.334;13.528;2023-07-02T03:00:00;4.0;4.0;
78678;PMS5003;67994;59.334;13.528;2023-07-02T03:01:00;4.0;4.0;
78678;PMS5003;67994;59.334;13.528;2023-07-02T03:02:00;4.0;4.0;
78678;PMS5003;67994;59.334;13.528;2023-07-02T03:03:00;4.0;4.0;
78678;PMS5003;67994;59.334;13.528;2023-07-02T03:04:00;4.0;4.0;
78678;PMS5003;67994;59.334;13.528;2023-07-02T03:05:00;4.0;4.0;
78678;PMS5003;67994;59.334;13.528;2023-07-02T03:06:00;4.0;4.0;
78678;PMS5003;67994;59.334;13.528;2023-07-02T03:07:00;4.0;4.0;
78678;PMS5003;67994;59.334;13.528;2023-07-02T03:08:00;4.0;4.0;
78678;PMS5003;67994;59.334;13.528;2023-07-02T03:09:00;3.0;3.0;
78678;PMS5003;67994;59.334;13.528;2023-07-02T03:10:00;3.0;3.0;
78678;PMS5003;67994;59.334;13.528;2023-07-02T03:11:00;3.0;3.0;
78678;PMS5003;67994;59.334;13.528;2023-07-02T03:12:00;3.0;3.0;
78678;PMS5003;67994;59.334;13.528;2023-07-02T03:13:00;3.0;3.0;
78678;PMS5003;67994;59.334;13.528;2023-07-02T03:14:00;3.4;3.4;
78678;PMS5003;67994;59.334;13.528;2023-07-02T03:15:00;3.4;3.4;
78678;PMS5003;67994;59.334;13.528;2023-07-02T03:16:00;3.4;3.4;
78678;PMS5003;67994;59.334;13.528;2023-07-02T03:17:00;3.4;3.4;
78678;PMS5003;67994;59.334;13.528;2023-07-02T03:18:00;3.4;3.4;
78678;PMS5003;67994;59.334;13.528;2023-07-02T03:19:00;3.3;3.3;
78678;PMS5003;67994;59.334;13.528;2023-07-02T03:20:00;3.3;3.3;
78678;PMS5003;67994;59.334;13.528;2023-07-02T03:21:00;3.3;3.3;
78678;PMS5003;67994;59.334;13.528;2023-07-02T03:22:00;3.3;3.3;
78678;PMS5003;67994;59.334;13.528;2023-07-02T03:23:00;3.3;3.3;
78678;PMS5003;67994;59.334;13.528;2023-07-02T03:24:00;3.3;3.3;
78678;PMS5003;67994;59.334;13.528;2023-07-02T03:25:00;3.3;3.3;
78678;PMS5003;67994;59.334;13.528;2023-07-02T03:26:00;3.3;3.3;
78678;PMS5003;67994;59.334;13.528;2023-07-02T03:27:00;3.3;3.3;
78678;PMS5003;67994;59.334;13.528;2023-07-02T03:28:00;3.3;3.3;
78678;PMS5003;67994;59.334;13.528;2023-07-02T03:29:00;2.4;2.4;
78678;PMS5003;67994;59.334;13.528;2023-07-02T03:30:00;2.4;2.4;
78678;PMS5003;67994;59.334;13.528;2023-07-02T03:31:00;2.4;2.4;
78678;PMS5003;67994;59.334;13.528;2023-07-02T03:32:00;2.4;2.4;
78678;PMS5003;67994;59.334;13.528;2023-07-02T03:33:00;2.4;2.4;
78678;PMS5003;67994;59.334;13.528;2023-07-02T03:34:01;4.0;4.0;
78678;PMS5003;67994;59.334;13.528;2023-07-02T03:35:00;4.0;4.0;
78678;PMS5003;67994;59.334;13.528;2023-07-02T03:36:00;4.0;4.0;
78678;PMS5003;67994;59.334;13.528;2023-07-02T03:37:00;4.0;4.0;
78678;PMS5003;67994;59.334;13.528;2023-07-02T03:38:00;4.0;4.0;
78678;PMS5003;67994;59.334;13.528;2023-07-02T03:39:00;2.0;2.0;
78678;PMS5003;67994;59.334;13.528;2023-07-02T03:40:00;2.0;2.0;
78678;PMS5003;67994;59.334;13.528;2023-07-02T03:41:00;2.0;2.0;
78678;PMS5003;67994;59.334;13.528;2023-07-02T03:42:00;2.0;2.0;
78678;PMS5003;67994;59.334;13.528;2023-07-02T03:43:00;2.0;2.0;
78678;PMS5003;67994;59.334;13.528;2023-07-02T03:44:00;4.0;3.0;
78678;PMS5003;67994;59.334;13.528;2023-07-02T03:45:00;4.0;3.0;
78678;PMS5003;67994;59.334;13.528;2023-07-02T03:46:00;4.0;3.0;
78678;PMS5003;67994;59.334;13.528;2023-07-02T03:47:00;4.0;3.0;
78678;PMS5003;67994;59.334;13.528;2023-07-02T03:48:00;4.0;3.0;
78678;PMS5003;67994;59.334;13.528;2023-07-02T03:49:00;3.1;3.1;
78678;PMS5003;67994;59.334;13.528;2023-07-02T03:50:00;3.1;3.1;
78678;PMS5003;67994;59.334;13.528;2023-07-02T03:51:01;3.1;3.1;
78678;PMS5003;67994;59.334;13.528;2023-07-02T03:52:00;3.1;3.1;
78678;PMS5003;67994;59.334;13.528;2023-07-02T03:53:00;3.1;3.1;
78678;PMS5003;67994;59.334;13.528;2023-07-02T03:54:00;2.7;2.7;
78678;PMS5003;67994;59.334;13.528;2023-07-02T03:55:00;2.7;2.7;
78678;PMS5003;67994;59.334;13.528;2023-07-02T03:56:00;2.7;2.7;
78678;PMS5003;67994;59.334;13.528;2023-07-02T03:57:00;2.7;2.7;
78678;PMS5003;67994;59.334;13.528;2023-07-02T03:58:00;2.7;2.7;
78678;PMS5003;67994;59.334;13.528;2023-07-02T03:59:00;3.0;3.0;
78678;PMS5003;67994;59.334;13.528;2023-07-02T04:00:00;3.0;3.0;
78678;PMS5003;67994;59.334;13.528;2023-07-02T04:01:00;3.0;3.0;
78678;PMS5003;67994;59.334;13.528;2023-07-02T04:02:00;3.0;3.0;
78678;PMS5003;67994;59.334;13.528;2023-07-02T04:03:00;3.0;3.0;
78678;PMS5003;67994;59.334;13.528;2023-07-02T04:04:00;4.3;3.7;
78678;PMS5003;67994;59.334;13.528;2023-07-02T04:05:00;4.3;3.7;
78678;PMS5003;67994;59.334;13.528;2023-07-02T04:06:00;4.3;3.7;
78678;PMS5003;67994;59.334;13.528;2023-07-02T04:07:00;4.3;3.7;
78678;PMS5003;67994;59.334;13.528;2023-07-02T04:08:00;4.3;3.7;
78678;PMS5003;67994;59.334;13.528;2023-07-02T04:09:00;5.0;5.0;
78678;PMS5003;67994;59.334;13.528;2023-07-02T04:10:00;5.0;5.0;
78678;PMS5003;67994;59.334;13.528;2023-07-02T04:11:00;5.0;5.0;
78678;PMS5003;67994;59.334;13.528;2023-07-02T04:12:00;5.0;5.0;
78678;PMS5003;67994;59.334;13.528;2023-07-02T04:13:00;5.0;5.0;
78678;PMS5003;67994;59.334;13.528;2023-07-02T04:14:00;4.9;4.9;
78678;PMS5003;67994;59.334;13.528;2023-07-02T04:15:00;4.9;4.9;
78678;PMS5003;67994;59.334;13.528;2023-07-02T04:16:00;4.9;4.9;
78678;PMS5003;67994;59.334;13.528;2023-07-02T04:17:01;4.9;4.9;
78678;PMS5003;67994;59.334;13.528;2023-07-02T04:18:00;4.9;4.9;
78678;PMS5003;67994;59.334;13.528;2023-07-02T04:19:00;3.6;3.0;
78678;PMS5003;67994;59.334;13.528;2023-07-02T04:20:01;3.6;3.0;
78678;PMS5003;67994;59.334;13.528;2023-07-02T04:21:00;3.6;3.0;
78678;PMS5003;67994;59.334;13.528;2023-07-02T04:22:00;3.6;3.0;
78678;PMS5003;67994;59.334;13.528;2023-07-02T04:23:00;3.6;3.0;
78678;PMS5003;67994;59.334;13.528;2023-07-02T04:24:00;5.9;5.6;
78678;PMS5003;67994;59.334;13.528;2023-07-02T04:25:00;5.9;5.6;
78678;PMS5003;67994;59.334;13.528;2023-07-02T04:26:00;5.9;5.6;
78678;PMS5003;67994;59.334;13.528;2023-07-02T04:27:00;5.9;5.6;
78678;PMS5003;67994;59.334;13.528;2023-07-02T04:28:00;5.9;5.6;
78678;PMS5003;67994;59.334;13.528;2023-07-02T04:29:00;4.4;3.4;
78678;PMS5003;67994;59.334;13.528;2023-07-02T04:30:00;4.4;3.4;
78678;PMS5003;67994;59.334;13.528;2023-07-02T04:31:00;4.4;3.4;
78678;PMS5003;67994;59.334;13.528;2023-07-02T04:32:00;4.4;3.4;
78678;PMS5003;67994;59.334;13.528;2023-07-02T04:33:00;4.4;3.4;
78678;PMS5003;67994;59.334;13.528;2023-07-02T04:34:00;4.0;4.0;
78678;PMS5003;67994;59.334;13.528;2023-07-02T04:35:00;4.0;4.0;
78678;PMS5003;67994;59.334;13.528;2023-07-02T04:36:00;4.0;4.0;
78678;PMS5003;67994;59.334;13.528;2023-07-02T04:37:00;4.0;4.0;
78678;PMS5003;67994;59.334;13.528;2023-07-02T04:38:00;4.0;4.0;
78678;PMS5003;67994;59.334;13.528;2023-07-02T04:39:00;3.7;3.0;
78678;PMS5003;67994;59.334;13.528;2023-07-02T04:40:00;3.7;3.0;
78678;PMS5003;67994;59.334;13.528;2023-07-02T04:41:00;3.7;3.0;
78678;PMS5003;67994;59.334;13.528;2023-07-02T04:42:00;3.7;3.0;
78678;PMS5003;67994;59.334;13.528;2023-07-02T04:43:00;3.7;3.0;
78678;PMS5003;67994;59.334;13.528;2023-07-02T04:44:00;5.0;5.0;
78678;PMS5003;67994;59.334;13.528;2023-07-02T04:45:00;5.0;5.0;
78678;PMS5003;67994;59.334;13.528;2023-07-02T04:46:00;5.0;5.0;
78678;PMS5003;67994;59.334;13.528;2023-07-02T04:47:00;5.0;5.0;
78678;PMS5003;67994;59.334;13.528;2023-07-02T04:48:00;5.0;5.0;
78678;PMS5003;67994;59.334;13.528;2023-07-02T04:49:00;5.3;4.6;
78678;PMS5003;67994;59.334;13.528;2023-07-02T04:50:00;5.3;4.6;
78678;PMS5003;67994;59.334;13.528;2023-07-02T04:51:00;5.3;4.6;
78678;PMS5003;67994;59.334;13.528;2023-07-02T04:52:00;5.3;4.6;
78678;PMS5003;67994;59.334;13.528;2023-07-02T04:53:00;5.3;4.6;
78678;PMS5003;67994;59.334;13.528;2023-07-02T04:54:00;6.4;4.7;
78678;PMS5003;67994;59.334;13.528;2023-07-02T04:55:00;6.4;4.7;
78678;PMS5003;67994;59.334;13.528;2023-07-02T04:56:00;6.4;4.7;
78678;PMS5003;67994;59.334;13.528;2023-07-02T04:57:00;6.4;4.7;
78678;PMS5003;67994;59.334;13.528;2023-07-02T04:58:00;6.4;4.7;
78678;PMS5003;67994;59.334;13.528;2023-07-02T04:59:00;3.7;3.7;
78678;PMS5003;67994;59.334;13.528;2023-07-02T05:00:00;3.7;3.7;
78678;PMS5003;67994;59.334;13.528;2023-07-02T05:01:00;3.7;3.7;
78678;PMS5003;67994;59.334;13.528;2023-07-02T05:02:00;3.7;3.7;
78678;PMS5003;67994;59.334;13.528;2023-07-02T05:03:00;3.7;3.7;
78678;PMS5003;67994;59.334;13.528;2023-07-02T05:04:00;4.4;4.4;
78678;PMS5003;67994;59.334;13.528;2023-07-02T05:05:00;4.4;4.4;
78678;PMS5003;67994;59.334;13.528;2023-07-02T05:06:00;4.4;4.4;
78678;PMS5003;67994;59.334;13.528;2023-07-02T05:07:00;4.4;4.4;
78678;PMS5003;67994;59.334;13.528;2023-07-02T05:08:00;4.4;4.4;
78678;PMS5003;67994;59.334;13.528;2023-07-02T05:09:00;4.4;4.4;
78678;PMS5003;67994;59.334;13.528;2023-07-02T05:10:00;4.4;4.4;
78678;PMS5003;67994;59.334;13.528;2023-07-02T05:11:00;4.4;4.4;
78678;PMS5003;67994;59.334;13.528;2023-07-02T05:12:00;4.4;4.4;
78678;PMS5003;67994;59.334;13.528;2023-07-02T05:13:00;4.4;4.4;
78678;PMS5003;67994;59.334;13.528;2023-07-02T05:14:00;5.0;5.0;
78678;PMS5003;67994;59.334;13.528;2023-07-02T05:15:00;5.0;5.0;
78678;PMS5003;67994;59.334;13.528;2023-07-02T05:16:00;5.0;5.0;
78678;PMS5003;67994;59.334;13.528;2023-07-02T05:17:00;5.0;5.0;
78678;PMS5003;67994;59.334;13.528;2023-07-02T05:18:00;5.0;5.0;
78678;PMS5003;67994;59.334;13.528;2023-07-02T05:19:00;6.6;6.3;
78678;PMS5003;67994;59.334;13.528;2023-07-02T05:20:00;6.6;6.3;
78678;PMS5003;67994;59.334;13.528;2023-07-02T05:21:00;6.6;6.3;
78678;PMS5003;67994;59.334;13.528;2023-07-02T05:22:00;6.6;6.3;
78678;PMS5003;67994;59.334;13.528;2023-07-02T05:23:00;6.6;6.3;
78678;PMS5003;67994;59.334;13.528;2023-07-02T05:24:00;4.7;4.7;
78678;PMS5003;67994;59.334;13.528;2023-07-02T05:25:00;4.7;4.7;
78678;PMS5003;67994;59.334;13.528;2023-07-02T05:26:00;4.7;4.7;
78678;PMS5003;67994;59.334;13.528;2023-07-02T05:27:00;4.7;4.7;
78678;PMS5003;67994;59.334;13.528;2023-07-02T05:28:00;4.7;4.7;
78678;PMS5003;67994;59.334;13.528;2023-07-02T05:29:00;6.1;5.8;
78678;PMS5003;67994;59.334;13.528;2023-07-02T05:30:00;6.1;5.8;
78678;PMS5003;67994;59.334;13.528;2023-07-02T05:31:00;6.1;5.8;
78678;PMS5003;67994;59.334;13.528;2023-07-02T05:32:00;6.1;5.8;
78678;PMS5003;67994;59.334;13.528;2023-07-02T05:33:00;6.1;5.8;
78678;PMS5003;67994;59.334;13.528;2023-07-02T05:34:00;6.7;6.7;
78678;PMS5003;67994;59.334;13.528;2023-07-02T05:35:00;6.7;6.7;
78678;PMS5003;67994;59.334;13.528;2023-07-02T05:36:00;6.7;6.7;
78678;PMS5003;67994;59.334;13.528;2023-07-02T05:37:00;6.7;6.7;
78678;PMS5003;67994;59.334;13.528;2023-07-02T05:38:00;6.7;6.7;
78678;PMS5003;67994;59.334;13.528;2023-07-02T05:39:00;5.4;5.4;
78678;PMS5003;67994;59.334;13.528;2023-07-02T05:40:00;5.4;5.4;
78678;PMS5003;67994;59.334;13.528;2023-07-02T05:41:01;5.4;5.4;
78678;PMS5003;67994;59.334;13.528;2023-07-02T05:42:00;5.4;5.4;
78678;PMS5003;67994;59.334;13.528;2023-07-02T05:43:00;5.4;5.4;
78678;PMS5003;67994;59.334;13.528;2023-07-02T05:44:00;5.6;5.0;
78678;PMS5003;67994;59.334;13.528;2023-07-02T05:45:00;5.6;5.0;
78678;PMS5003;67994;59.334;13.528;2023-07-02T05:46:00;5.6;5.0;
78678;PMS5003;67994;59.334;13.528;2023-07-02T05:47:00;5.6;5.0;
78678;PMS5003;67994;59.334;13.528;2023-07-02T05:48:00;5.6;5.0;
78678;PMS5003;67994;59.334;13.528;2023-07-02T05:49:00;7.6;6.0;
78678;PMS5003;67994;59.334;13.528;2023-07-02T05:50:00;7.6;6.0;
78678;PMS5003;67994;59.334;13.528;2023-07-02T05:51:00;7.6;6.0;
78678;PMS5003;67994;59.334;13.528;2023-07-02T05:52:00;7.6;6.0;
78678;PMS5003;67994;59.334;13.528;2023-07-02T05:53:00;7.6;6.0;
78678;PMS5003;67994;59.334;13.528;2023-07-02T05:54:00;5.0;5.0;
78678;PMS5003;67994;59.334;13.528;2023-07-02T05:55:00;5.0;5.0;
78678;PMS5003;67994;59.334;13.528;2023-07-02T05:56:00;5.0;5.0;
78678;PMS5003;67994;59.334;13.528;2023-07-02T05:57:00;5.0;5.0;
78678;PMS5003;67994;59.334;13.528;2023-07-02T05:58:00;5.0;5.0;
78678;PMS5003;67994;59.334;13.528;2023-07-02T05:59:00;3.0;3.0;
78678;PMS5003;67994;59.334;13.528;2023-07-02T06:00:00;3.0;3.0;
78678;PMS5003;67994;59.334;13.528;2023-07-02T06:01:00;3.0;3.0;
78678;PMS5003;67994;59.334;13.528;2023-07-02T06:02:00;3.0;3.0;
78678;PMS5003;67994;59.334;13.528;2023-07-02T06:03:00;3.0;3.0;
78678;PMS5003;67994;59.334;13.528;2023-07-02T06:04:00;5.0;5.0;
78678;PMS5003;67994;59.334;13.528;2023-07-02T06:05:00;5.0;5.0;
78678;PMS5003;67994;59.334;13.528;2023-07-02T06:06:00;5.0;5.0;
78678;PMS5003;67994;59.334;13.528;2023-07-02T06:07:00;5.0;5.0;
78678;PMS5003;67994;59.334;13.528;2023-07-02T06:08:00;5.0;5.0;
78678;PMS5003;67994;59.334;13.528;2023-07-02T06:09:00;4.9;4.9;
78678;PMS5003;67994;59.334;13.528;2023-07-02T06:10:00;4.9;4.9;
78678;PMS5003;67994;59.334;13.528;2023-07-02T06:11:00;4.9;4.9;
78678;PMS5003;67994;59.334;13.528;2023-07-02T06:12:00;4.9;4.9;
78678;PMS5003;67994;59.334;13.528;2023-07-02T06:13:00;4.9;4.9;
78678;PMS5003;67994;59.334;13.528;2023-07-02T06:14:00;5.0;4.0;
78678;PMS5003;67994;59.334;13.528;2023-07-02T06:15:00;5.0;4.0;
78678;PMS5003;67994;59.334;13.528;2023-07-02T06:16:00;5.0;4.0;
78678;PMS5003;67994;59.334;13.528;2023-07-02T06:17:00;5.0;4.0;
78678;PMS5003;67994;59.334;13.528;2023-07-02T06:18:00;5.0;4.0;